Time,TemperatureF,DewpointF,PressureIn,WindDirection,WindDirectionDegrees,WindSpeedMPH,WindSpeedGustMPH,Humidity,HourlyPrecipIn,Conditions,Clouds,dailyrainin,SoftwareType,DateUTC
2013-07-31 00:01:00,61.9,55.7,30.01,North,0,0.0,0.0,80,0.00,,,0.00,WUHU216HW,2013-07-31 04:01:00,
2013-07-31 00:03:00,61.9,55.7,30.01,North,0,0.0,0.0,80,0.00,,,0.00,WUHU216HW,2013-07-31 04:03:00,
2013-07-31 00:28:00,60.8,55.7,30.01,North,0,0.0,0.0,83,0.00,,,0.00,WUHU216HW,2013-07-31 04:28:00,
2013-07-31 00:33:00,60.8,55.7,30.01,North,0,0.0,0.0,83,0.00,,,0.00,WUHU216HW,2013-07-31 04:33:00,
2013-07-31 00:58:00,60.7,55.8,30.00,North,0,0.0,0.0,84,0.00,,,0.00,WUHU216HW,2013-07-31 04:58:00,
2013-07-31 01:03:00,60.7,55.8,30.00,North,0,0.0,0.0,84,0.00,,,0.00,WUHU216HW,2013-07-31 05:03:00,
2013-07-31 01:28:00,60.1,55.6,30.00,North,0,0.0,0.0,85,0.00,,,0.00,WUHU216HW,2013-07-31 05:28:00,
2013-07-31 01:33:00,60.1,55.6,30.00,North,0,0.0,0.0,85,0.00,,,0.00,WUHU216HW,2013-07-31 05:33:00,
2013-07-31 01:58:00,59.9,55.8,30.00,North,0,0.0,0.0,86,0.00,,,0.00,WUHU216HW,2013-07-31 05:58:00,
2013-07-31 02:03:00,59.9,55.8,30.00,North,0,0.0,0.0,86,0.00,,,0.00,WUHU216HW,2013-07-31 06:03:00,
2013-07-31 02:28:00,59.4,55.9,30.00,North,0,0.0,0.0,88,0.00,,,0.00,WUHU216HW,2013-07-31 06:28:00,
2013-07-31 02:33:00,59.4,55.9,30.00,North,0,0.0,0.0,88,0.00,,,0.00,WUHU216HW,2013-07-31 06:33:00,
2013-07-31 02:58:00,58.9,55.4,30.00,North,0,0.0,0.0,88,0.00,,,0.00,WUHU216HW,2013-07-31 06:58:00,
2013-07-31 03:03:00,58.9,55.4,30.00,North,0,0.0,0.0,88,0.00,,,0.00,WUHU216HW,2013-07-31 07:03:00,
2013-07-31 03:28:00,58.5,55.3,30.00,North,0,0.0,0.0,89,0.00,,,0.00,WUHU216HW,2013-07-31 07:28:00,
2013-07-31 03:33:00,58.5,55.3,30.00,North,0,0.0,0.0,89,0.00,,,0.00,WUHU216HW,2013-07-31 07:33:00,
2013-07-31 03:58:00,58.1,54.9,30.00,North,0,0.0,0.0,89,0.00,,,0.00,WUHU216HW,2013-07-31 07:58:00,
2013-07-31 04:03:00,58.1,54.9,30.00,North,0,0.0,0.0,89,0.00,,,0.00,WUHU216HW,2013-07-31 08:03:00,
2013-07-31 04:28:00,58.0,54.7,30.00,North,0,0.0,0.0,89,0.00,,,0.00,WUHU216HW,2013-07-31 08:28:00,
2013-07-31 04:33:00,58.0,54.7,30.00,North,0,0.0,0.0,89,0.00,,,0.00,WUHU216HW,2013-07-31 08:33:00,
2013-07-31 04:58:00,57.8,54.9,30.00,North,0,0.0,0.0,90,0.00,,,0.00,WUHU216HW,2013-07-31 08:58:00,
2013-07-31 05:03:00,57.8,54.9,30.00,North,0,0.0,0.0,90,0.00,,,0.00,WUHU216HW,2013-07-31 09:03:00,
2013-07-31 05:28:00,57.2,54.0,30.01,North,0,0.0,0.0,89,0.00,,,0.00,WUHU216HW,2013-07-31 09:28:00,
2013-07-31 05:33:00,57.2,54.0,30.01,North,0,0.0,0.0,89,0.00,,,0.00,WUHU216HW,2013-07-31 09:33:00,
2013-07-31 05:58:00,57.2,54.4,30.02,North,0,0.0,0.0,90,0.00,,,0.00,WUHU216HW,2013-07-31 09:58:00,
2013-07-31 06:03:00,57.2,54.4,30.02,North,0,0.0,0.0,90,0.00,,,0.00,WUHU216HW,2013-07-31 10:03:00,
2013-07-31 06:28:00,58.0,55.1,30.02,North,0,0.0,0.0,90,0.00,,,0.00,WUHU216HW,2013-07-31 10:28:00,
2013-07-31 06:33:00,58.0,55.1,30.02,North,0,0.0,0.0,90,0.00,,,0.00,WUHU216HW,2013-07-31 10:33:00,
2013-07-31 06:58:00,60.1,57.8,30.03,North,0,0.0,0.0,92,0.00,,,0.00,WUHU216HW,2013-07-31 10:58:00,
2013-07-31 07:03:00,60.1,57.8,30.03,North,0,0.0,0.0,92,0.00,,,0.00,WUHU216HW,2013-07-31 11:03:00,
2013-07-31 07:28:00,62.6,59.8,30.03,North,0,0.0,0.0,90,0.00,,,0.00,WUHU216HW,2013-07-31 11:28:00,
2013-07-31 07:33:00,62.6,59.8,30.03,North,0,0.0,0.0,90,0.00,,,0.00,WUHU216HW,2013-07-31 11:33:00,
2013-07-31 07:58:00,69.5,64.1,30.03,North,0,0.0,0.0,83,0.00,,,0.00,WUHU216HW,2013-07-31 11:58:00,
2013-07-31 08:03:00,69.5,64.1,30.03,North,0,0.0,0.0,83,0.00,,,0.00,WUHU216HW,2013-07-31 12:03:00,
2013-07-31 08:28:00,68.6,62.2,30.03,North,0,0.0,0.0,80,0.00,,,0.00,WUHU216HW,2013-07-31 12:28:00,
2013-07-31 08:33:00,68.6,62.2,30.03,North,0,0.0,0.0,80,0.00,,,0.00,WUHU216HW,2013-07-31 12:33:00,
2013-07-31 08:58:00,70.0,62.4,30.02,North,0,0.0,0.0,77,0.00,,,0.00,WUHU216HW,2013-07-31 12:58:00,
2013-07-31 09:03:00,70.0,62.4,30.02,North,0,0.0,0.0,77,0.00,,,0.00,WUHU216HW,2013-07-31 13:03:00,
2013-07-31 09:28:00,72.2,62.6,30.02,North,0,0.0,0.0,72,0.00,,,0.00,WUHU216HW,2013-07-31 13:28:00,
2013-07-31 09:33:00,72.2,62.6,30.02,North,0,0.0,0.0,72,0.00,,,0.00,WUHU216HW,2013-07-31 13:33:00,
2013-07-31 09:58:00,74.7,64.4,30.02,North,0,0.0,0.0,70,0.00,,,0.00,WUHU216HW,2013-07-31 13:58:00,
2013-07-31 10:03:00,74.7,64.4,30.02,North,0,0.0,0.0,70,0.00,,,0.00,WUHU216HW,2013-07-31 14:03:00,
2013-07-31 10:28:00,76.9,62.4,30.01,North,0,0.0,0.0,61,0.00,,,0.00,WUHU216HW,2013-07-31 14:28:00,
2013-07-31 10:33:00,76.9,62.4,30.01,North,0,0.0,0.0,61,0.00,,,0.00,WUHU216HW,2013-07-31 14:33:00,
2013-07-31 10:58:00,78.3,61.8,30.01,North,0,0.0,0.0,57,0.00,,,0.00,WUHU216HW,2013-07-31 14:58:00,
2013-07-31 11:03:00,78.3,61.8,30.01,North,0,0.0,0.0,57,0.00,,,0.00,WUHU216HW,2013-07-31 15:03:00,
2013-07-31 11:28:00,81.5,63.7,30.00,North,0,0.0,0.0,55,0.00,,,0.00,WUHU216HW,2013-07-31 15:28:00,
2013-07-31 11:33:00,81.5,63.7,30.00,North,0,0.0,0.0,55,0.00,,,0.00,WUHU216HW,2013-07-31 15:33:00,
2013-07-31 11:58:00,82.6,62.7,30.00,North,0,0.0,0.0,51,0.00,,,0.00,WUHU216HW,2013-07-31 15:58:00,
2013-07-31 12:03:00,82.6,62.7,30.00,North,0,0.0,0.0,51,0.00,,,0.00,WUHU216HW,2013-07-31 16:03:00,
2013-07-31 12:28:00,83.3,63.9,29.99,North,0,0.0,0.0,52,0.00,,,0.00,WUHU216HW,2013-07-31 16:28:00,
2013-07-31 12:33:00,83.3,63.9,29.99,North,0,0.0,0.0,52,0.00,,,0.00,WUHU216HW,2013-07-31 16:33:00,
2013-07-31 12:58:00,84.2,63.7,29.98,North,0,0.0,0.0,50,0.00,,,0.00,WUHU216HW,2013-07-31 16:58:00,
2013-07-31 13:03:00,84.2,63.7,29.98,North,0,0.0,0.0,50,0.00,,,0.00,WUHU216HW,2013-07-31 17:03:00,
2013-07-31 13:28:00,84.8,63.5,29.98,North,0,0.0,0.0,49,0.00,,,0.00,WUHU216HW,2013-07-31 17:28:00,
2013-07-31 13:33:00,84.8,63.5,29.98,North,0,0.0,0.0,49,0.00,,,0.00,WUHU216HW,2013-07-31 17:33:00,
2013-07-31 13:58:00,85.7,61.8,29.97,North,0,0.0,0.0,45,0.00,,,0.00,WUHU216HW,2013-07-31 17:58:00,
2013-07-31 14:03:00,85.7,61.8,29.97,North,0,0.0,0.0,45,0.00,,,0.00,WUHU216HW,2013-07-31 18:03:00,
2013-07-31 14:28:00,87.5,63.5,29.96,North,0,0.0,0.0,45,0.00,,,0.00,WUHU216HW,2013-07-31 18:28:00,
2013-07-31 14:33:00,87.5,63.5,29.96,North,0,0.0,0.0,45,0.00,,,0.00,WUHU216HW,2013-07-31 18:33:00,
2013-07-31 14:58:00,85.7,62.5,29.95,North,0,0.0,0.0,46,0.00,,,0.00,WUHU216HW,2013-07-31 18:58:00,
2013-07-31 15:03:00,85.7,62.5,29.95,North,0,0.0,0.0,46,0.00,,,0.00,WUHU216HW,2013-07-31 19:03:00,
2013-07-31 15:28:00,86.0,63.5,29.94,North,0,0.0,0.0,47,0.00,,,0.00,WUHU216HW,2013-07-31 19:28:00,
2013-07-31 15:33:00,86.0,63.5,29.94,North,0,0.0,0.0,47,0.00,,,0.00,WUHU216HW,2013-07-31 19:33:00,
2013-07-31 15:58:00,85.7,63.1,29.93,North,0,0.0,0.0,47,0.00,,,0.00,WUHU216HW,2013-07-31 19:58:00,
2013-07-31 16:03:00,85.7,63.1,29.93,North,0,0.0,0.0,47,0.00,,,0.00,WUHU216HW,2013-07-31 20:03:00,
2013-07-31 16:28:00,85.3,63.5,29.93,North,0,0.0,0.0,48,0.00,,,0.00,WUHU216HW,2013-07-31 20:28:00,
2013-07-31 16:33:00,85.3,63.5,29.93,North,0,0.0,0.0,48,0.00,,,0.00,WUHU216HW,2013-07-31 20:33:00,
2013-07-31 16:58:00,85.1,63.9,29.93,North,0,0.0,0.0,49,0.00,,,0.00,WUHU216HW,2013-07-31 20:58:00,
2013-07-31 17:03:00,85.1,63.9,29.93,North,0,0.0,0.0,49,0.00,,,0.00,WUHU216HW,2013-07-31 21:03:00,
2013-07-31 17:28:00,84.2,63.7,29.92,North,0,0.0,0.0,50,0.00,,,0.00,WUHU216HW,2013-07-31 21:28:00,
2013-07-31 17:33:00,84.2,63.7,29.92,North,0,0.0,0.0,50,0.00,,,0.00,WUHU216HW,2013-07-31 21:33:00,
2013-07-31 17:58:00,84.4,64.5,29.92,North,0,0.0,0.0,51,0.00,,,0.00,WUHU216HW,2013-07-31 21:58:00,
2013-07-31 18:03:00,84.4,64.5,29.92,North,0,0.0,0.0,51,0.00,,,0.00,WUHU216HW,2013-07-31 22:03:00,
2013-07-31 18:28:00,83.5,64.5,29.91,North,0,0.0,0.0,53,0.00,,,0.00,WUHU216HW,2013-07-31 22:28:00,
2013-07-31 18:33:00,83.5,64.5,29.91,North,0,0.0,0.0,53,0.00,,,0.00,WUHU216HW,2013-07-31 22:33:00,
2013-07-31 18:58:00,84.4,66.0,29.91,North,0,0.0,0.0,54,0.00,,,0.00,WUHU216HW,2013-07-31 22:58:00,
2013-07-31 19:03:00,84.4,66.0,29.91,North,0,0.0,0.0,54,0.00,,,0.00,WUHU216HW,2013-07-31 23:03:00,
2013-07-31 19:28:00,80.1,64.0,29.90,North,0,0.0,0.0,58,0.00,,,0.00,WUHU216HW,2013-07-31 23:28:00,
2013-07-31 19:33:00,80.1,64.0,29.90,North,0,0.0,0.0,58,0.00,,,0.00,WUHU216HW,2013-07-31 23:33:00,
2013-07-31 19:58:00,76.9,63.3,29.90,North,0,0.0,0.0,63,0.00,,,0.00,WUHU216HW,2013-07-31 23:58:00,
2013-07-31 20:03:00,76.9,63.3,29.90,North,0,0.0,0.0,63,0.00,,,0.00,WUHU216HW,2013-08-01 00:03:00,
2013-07-31 20:28:00,74.5,62.8,29.90,North,0,0.0,0.0,67,0.00,,,0.00,WUHU216HW,2013-08-01 00:28:00,
2013-07-31 20:33:00,74.5,62.8,29.90,North,0,0.0,0.0,67,0.00,,,0.00,WUHU216HW,2013-08-01 00:33:00,
2013-07-31 20:58:00,72.9,62.6,29.90,North,0,0.0,0.0,70,0.00,,,0.00,WUHU216HW,2013-08-01 00:58:00,
2013-07-31 21:03:00,72.9,62.6,29.90,North,0,0.0,0.0,70,0.00,,,0.00,WUHU216HW,2013-08-01 01:03:00,
2013-07-31 21:28:00,72.4,62.8,29.90,North,0,0.0,0.0,72,0.00,,,0.00,WUHU216HW,2013-08-01 01:28:00,
2013-07-31 21:33:00,72.4,62.8,29.90,North,0,0.0,0.0,72,0.00,,,0.00,WUHU216HW,2013-08-01 01:33:00,
2013-07-31 21:58:00,71.6,63.3,29.90,North,0,0.0,0.0,75,0.00,,,0.00,WUHU216HW,2013-08-01 01:58:00,
2013-07-31 22:03:00,71.6,63.3,29.90,North,0,0.0,0.0,75,0.00,,,0.00,WUHU216HW,2013-08-01 02:03:00,
2013-07-31 22:28:00,70.4,62.7,29.90,North,0,0.0,0.0,77,0.00,,,0.00,WUHU216HW,2013-08-01 02:28:00,
2013-07-31 22:33:00,70.4,62.7,29.90,North,0,0.0,0.0,77,0.00,,,0.00,WUHU216HW,2013-08-01 02:33:00,
2013-07-31 22:58:00,69.8,63.4,29.90,North,0,0.0,0.0,80,0.00,,,0.00,WUHU216HW,2013-08-01 02:58:00,
2013-07-31 23:03:00,69.8,63.4,29.90,North,0,0.0,0.0,80,0.00,,,0.00,WUHU216HW,2013-08-01 03:03:00,
2013-07-31 23:28:00,69.1,62.7,29.90,North,0,0.0,0.0,80,0.00,,,0.00,WUHU216HW,2013-08-01 03:28:00,
2013-07-31 23:33:00,69.1,62.7,29.90,North,0,0.0,0.0,80,0.00,,,0.00,WUHU216HW,2013-08-01 03:33:00,
2013-07-31 23:58:00,68.8,63.1,29.90,North,0,0.0,0.0,82,0.00,,,0.00,WUHU216HW,2013-08-01 03:58:00,